Time;durP1;ratioP1;P1;durP2;ratioP2;P2;SDS_P1;SDS_P2;PMS_P1;PMS_P2;Temp;Humidity;BMP_temperature;BMP_pressure;BME280_temperature;BME280_humidity;BME280_pressure;Samples;Min_cycle;Max_cycle;Signal;HPM_P1;HPM_P2
2023/01/26 00:01:46;;;;;;;12.17;8.63;;;;;;;;;;5031717;28;20238;-52
2023/01/26 00:04:13;;;;;;;18.30;10.67;;;;;;;;;;5020657;28;20352;-52
2023/01/26 00:06:39;;;;;;;16.50;10.57;;;;;;;;;;5024148;28;20776;-52
2023/01/26 00:09:06;;;;;;;15.93;10.17;;;;;;;;;;5022616;28;20237;-53
2023/01/26 00:11:34;;;;;;;17.07;11.13;;;;;;;;;;5022778;28;20238;-53
2023/01/26 00:14:00;;;;;;;15.50;10.57;;;;;;;;;;5015532;28;20232;-57
2023/01/26 00:16:27;;;;;;;18.30;10.10;;;;;;;;;;5018709;28;20716;-53
2023/01/26 00:18:54;;;;;;;17.33;10.93;;;;;;;;;;5021681;28;20239;-55
2023/01/26 00:21:21;;;;;;;20.17;11.50;;;;;;;;;;5020308;28;20323;-52
2023/01/26 00:23:48;;;;;;;15.30;9.53;;;;;;;;;;5019192;28;20315;-53
2023/01/26 00:26:15;;;;;;;18.50;10.20;;;;;;;;;;5030045;28;20243;-53
2023/01/26 00:28:43;;;;;;;17.10;10.87;;;;;;;;;;5032873;28;20304;-53
2023/01/26 00:31:11;;;;;;;15.27;10.83;;;;;;;;;;5023888;28;20270;-53
2023/01/26 00:33:38;;;;;;;21.13;10.17;;;;;;;;;;5022786;28;20339;-53
2023/01/26 00:36:04;;;;;;;16.93;10.03;;;;;;;;;;5027916;28;20341;-52
2023/01/26 00:38:31;;;;;;;17.93;11.13;;;;;;;;;;5020609;28;20758;-53
2023/01/26 00:40:57;;;;;;;22.77;12.23;;;;;;;;;;5013712;28;20326;-54
2023/01/26 00:43:23;;;;;;;15.03;11.10;;;;;;;;;;5019971;28;20241;-53
2023/01/26 00:45:51;;;;;;;16.67;11.73;;;;;;;;;;5022976;28;20717;-52
2023/01/26 00:48:18;;;;;;;16.40;10.57;;;;;;;;;;5022789;28;20335;-52
2023/01/26 00:50:44;;;;;;;16.63;10.00;;;;;;;;;;5020447;28;20245;-52
2023/01/26 00:53:10;;;;;;;17.77;10.93;;;;;;;;;;5030399;28;20238;-57
2023/01/26 00:55:37;;;;;;;14.80;9.87;;;;;;;;;;5031657;28;20258;-53
2023/01/26 00:58:04;;;;;;;20.00;11.03;;;;;;;;;;5025100;28;20247;-53
2023/01/26 01:00:31;;;;;;;18.63;10.53;;;;;;;;;;5022630;28;20319;-53
2023/01/26 01:03:07;;;;;;;17.33;10.90;;;;;;;;;;5024180;28;20725;-53
2023/01/26 01:05:33;;;;;;;15.90;10.10;;;;;;;;;;5019567;28;20261;-53
2023/01/26 01:08:00;;;;;;;18.90;11.57;;;;;;;;;;5021802;28;20342;-52
2023/01/26 01:10:26;;;;;;;18.43;9.83;;;;;;;;;;5012511;28;20243;-53
2023/01/26 01:12:53;;;;;;;18.00;10.97;;;;;;;;;;5015517;28;20239;-52
2023/01/26 01:15:19;;;;;;;18.93;12.20;;;;;;;;;;5017827;28;21007;-53
2023/01/26 01:17:46;;;;;;;17.73;10.87;;;;;;;;;;5023638;28;20252;-56
2023/01/26 01:20:14;;;;;;;19.33;12.87;;;;;;;;;;5024374;28;20768;-52
2023/01/26 01:22:40;;;;;;;15.13;10.90;;;;;;;;;;5021480;28;20250;-53
2023/01/26 01:25:07;;;;;;;16.20;10.70;;;;;;;;;;5022240;28;20628;-53
2023/01/26 01:27:33;;;;;;;17.07;11.17;;;;;;;;;;5009486;28;20235;-53
2023/01/26 01:30:00;;;;;;;17.77;12.27;;;;;;;;;;5016856;28;20236;-53
2023/01/26 01:32:26;;;;;;;19.27;11.73;;;;;;;;;;5024386;28;20822;-53
2023/01/26 01:34:53;;;;;;;17.67;11.73;;;;;;;;;;5020014;28;20800;-53
2023/01/26 01:37:21;;;;;;;18.87;10.87;;;;;;;;;;5023966;28;20318;-52
2023/01/26 01:39:48;;;;;;;22.50;12.53;;;;;;;;;;5020908;28;20240;-54
2023/01/26 01:42:15;;;;;;;22.00;12.53;;;;;;;;;;5027248;28;20343;-54
2023/01/26 01:44:42;;;;;;;23.33;13.33;;;;;;;;;;5025448;28;20366;-54
2023/01/26 01:47:12;;;;;;;20.87;12.00;;;;;;;;;;5024972;28;20240;-53
2023/01/26 01:49:39;;;;;;;20.87;11.77;;;;;;;;;;5028753;28;20246;-53
2023/01/26 01:52:07;;;;;;;19.57;12.23;;;;;;;;;;5035105;28;20267;-54
2023/01/26 01:54:38;;;;;;;19.80;12.40;;;;;;;;;;5025547;28;20335;-53
2023/01/26 01:57:14;;;;;;;25.03;12.07;;;;;;;;;;5029525;28;20324;-53
2023/01/26 01:59:41;;;;;;;18.73;13.50;;;;;;;;;;5030249;28;20551;-54
2023/01/26 02:02:07;;;;;;;16.50;10.80;;;;;;;;;;5025383;28;20428;-53
2023/01/26 02:04:34;;;;;;;21.17;12.77;;;;;;;;;;5034725;28;20239;-53
2023/01/26 02:07:01;;;;;;;21.87;12.40;;;;;;;;;;5028956;28;20322;-53
2023/01/26 02:12:17;;;;;;;20.33;12.27;;;;;;;;;;5022188;28;20246;-54
2023/01/26 02:14:44;;;;;;;20.47;12.23;;;;;;;;;;5026108;28;20227;-52
2023/01/26 02:17:10;;;;;;;18.30;12.60;;;;;;;;;;5025153;28;20315;-53
2023/01/26 02:19:44;;;;;;;18.23;12.60;;;;;;;;;;5027959;28;20318;-53
2023/01/26 02:22:15;;;;;;;19.37;12.70;;;;;;;;;;5030664;28;20240;-52
2023/01/26 02:24:42;;;;;;;20.83;12.73;;;;;;;;;;5030657;28;20717;-52
2023/01/26 02:27:10;;;;;;;20.40;12.17;;;;;;;;;;5026201;28;20240;-53
2023/01/26 02:29:37;;;;;;;23.83;13.50;;;;;;;;;;5024657;28;20639;-52
2023/01/26 02:32:03;;;;;;;19.67;12.73;;;;;;;;;;5018522;28;20772;-54
2023/01/26 02:34:29;;;;;;;20.87;12.23;;;;;;;;;;5024255;28;20247;-54
2023/01/26 02:36:57;;;;;;;23.43;13.67;;;;;;;;;;5027113;28;20235;-52
2023/01/26 02:39:28;;;;;;;20.10;12.40;;;;;;;;;;5023222;28;20315;-52
2023/01/26 02:44:41;;;;;;;20.20;12.80;;;;;;;;;;5022009;28;20238;-54
2023/01/26 02:47:11;;;;;;;22.43;12.17;;;;;;;;;;5024539;28;20233;-54
2023/01/26 02:49:50;;;;;;;21.00;12.97;;;;;;;;;;5028068;28;20247;-52
2023/01/26 02:52:16;;;;;;;20.80;13.43;;;;;;;;;;5029255;28;20248;-53
2023/01/26 02:57:27;;;;;;;16.97;11.17;;;;;;;;;;5034851;28;20258;-52
2023/01/26 02:59:54;;;;;;;19.97;11.83;;;;;;;;;;5031394;28;20331;-56
2023/01/26 03:02:21;;;;;;;24.47;13.50;;;;;;;;;;5031675;28;20259;-52
2023/01/26 03:04:47;;;;;;;22.40;12.13;;;;;;;;;;5027163;28;20229;-53
2023/01/26 03:07:13;;;;;;;24.03;12.60;;;;;;;;;;5035586;28;20243;-53
2023/01/26 03:09:40;;;;;;;21.90;12.20;;;;;;;;;;5024220;28;20260;-53
2023/01/26 03:12:06;;;;;;;24.33;14.37;;;;;;;;;;5024641;28;20756;-53
2023/01/26 03:14:33;;;;;;;16.03;10.87;;;;;;;;;;5023948;28;20710;-53
2023/01/26 03:17:00;;;;;;;21.63;12.20;;;;;;;;;;5013745;28;20322;-54
2023/01/26 03:27:41;;;;;;;18.50;10.90;;;;;;;;;;5022761;28;20259;-53
2023/01/26 03:30:07;;;;;;;16.80;11.57;;;;;;;;;;5024942;28;20243;-53
2023/01/26 03:32:35;;;;;;;17.70;10.97;;;;;;;;;;5022129;28;20241;-52
2023/01/26 03:35:02;;;;;;;18.97;10.47;;;;;;;;;;5021783;28;20237;-54
2023/01/26 03:37:33;;;;;;;11.60;8.27;;;;;;;;;;5021631;28;20257;-52
2023/01/26 03:56:24;;;;;;;16.73;9.87;;;;;;;;;;5024759;28;20258;-52
2023/01/26 03:58:51;;;;;;;13.90;9.47;;;;;;;;;;5021278;28;20740;-53
2023/01/26 04:01:26;;;;;;;13.93;9.23;;;;;;;;;;5015113;28;20314;-52
2023/01/26 04:09:23;;;;;;;13.83;8.33;;;;;;;;;;5021671;28;20807;-52
2023/01/26 04:11:50;;;;;;;12.43;8.03;;;;;;;;;;5020692;28;20235;-53
2023/01/26 04:22:33;;;;;;;15.37;10.83;;;;;;;;;;5021573;28;20256;-53
2023/01/26 04:24:59;;;;;;;19.27;11.30;;;;;;;;;;5022861;28;20322;-53
2023/01/26 04:27:25;;;;;;;16.83;10.40;;;;;;;;;;5019571;28;20325;-52
2023/01/26 04:29:52;;;;;;;17.80;10.53;;;;;;;;;;5022693;28;20701;-52
2023/01/26 04:32:18;;;;;;;19.23;10.93;;;;;;;;;;5023320;28;20244;-53
2023/01/26 04:34:46;;;;;;;18.57;10.70;;;;;;;;;;5013336;28;20243;-53
2023/01/26 04:37:12;;;;;;;15.30;9.67;;;;;;;;;;5019991;28;21078;-52
2023/01/26 04:39:39;;;;;;;19.43;10.10;;;;;;;;;;5021532;28;20613;-53
2023/01/26 04:42:05;;;;;;;17.90;10.67;;;;;;;;;;5020903;28;20250;-52
2023/01/26 04:44:31;;;;;;;13.50;8.90;;;;;;;;;;5022435;28;20239;-53
2023/01/26 04:46:58;;;;;;;19.03;10.70;;;;;;;;;;5019376;28;20246;-52
2023/01/26 04:49:24;;;;;;;16.13;10.63;;;;;;;;;;5018532;28;20245;-52
2023/01/26 04:51:52;;;;;;;17.27;11.80;;;;;;;;;;5019526;28;20285;-54
2023/01/26 04:54:18;;;;;;;18.87;11.07;;;;;;;;;;5021585;28;20438;-53
2023/01/26 04:56:45;;;;;;;18.70;11.80;;;;;;;;;;5022423;28;20242;-53
2023/01/26 04:59:11;;;;;;;15.90;10.53;;;;;;;;;;5020735;28;20247;-52
2023/01/26 05:01:37;;;;;;;17.30;10.83;;;;;;;;;;5019823;28;20270;-53
2023/01/26 05:04:04;;;;;;;16.70;9.97;;;;;;;;;;5024357;28;20235;-52
2023/01/26 05:06:31;;;;;;;14.43;9.13;;;;;;;;;;5017111;28;20811;-57
2023/01/26 05:08:59;;;;;;;14.53;9.40;;;;;;;;;;5018364;28;20248;-53
2023/01/26 05:11:25;;;;;;;16.47;9.30;;;;;;;;;;5024716;28;20230;-52
2023/01/26 05:13:52;;;;;;;15.23;9.43;;;;;;;;;;5030027;28;20235;-52
2023/01/26 05:16:19;;;;;;;19.90;10.33;;;;;;;;;;5030456;28;20260;-53
2023/01/26 05:18:45;;;;;;;21.13;12.07;;;;;;;;;;5033432;28;20236;-53
2023/01/26 05:21:11;;;;;;;16.87;11.10;;;;;;;;;;5028397;28;20246;-53
2023/01/26 05:23:38;;;;;;;16.20;8.67;;;;;;;;;;5020980;28;20315;-54
2023/01/26 05:26:06;;;;;;;13.53;9.17;;;;;;;;;;5019932;28;20329;-53
2023/01/26 05:28:33;;;;;;;14.40;8.87;;;;;;;;;;5014563;28;20916;-51
2023/01/26 05:31:00;;;;;;;15.47;9.57;;;;;;;;;;5024118;28;20235;-53
2023/01/26 05:33:26;;;;;;;13.97;10.00;;;;;;;;;;5027181;28;20735;-51
2023/01/26 05:35:53;;;;;;;15.33;8.83;;;;;;;;;;5022232;28;20233;-52
2023/01/26 05:38:19;;;;;;;18.37;9.97;;;;;;;;;;5024235;28;20241;-52
2023/01/26 05:40:46;;;;;;;17.50;10.20;;;;;;;;;;5021062;28;20228;-52
2023/01/26 05:43:13;;;;;;;15.80;9.50;;;;;;;;;;5023373;28;20279;-52
2023/01/26 05:45:40;;;;;;;18.53;10.40;;;;;;;;;;5023828;28;20557;-52
2023/01/26 05:48:09;;;;;;;12.80;8.40;;;;;;;;;;5026959;28;20236;-53
2023/01/26 05:50:36;;;;;;;15.83;8.70;;;;;;;;;;5023512;28;20228;-52
2023/01/26 05:53:02;;;;;;;17.40;9.07;;;;;;;;;;5023096;28;20307;-52
2023/01/26 05:55:29;;;;;;;13.17;8.30;;;;;;;;;;5024413;28;20243;-52
2023/01/26 05:57:55;;;;;;;11.43;7.17;;;;;;;;;;5024049;28;20665;-53
2023/01/26 06:00:23;;;;;;;13.87;7.93;;;;;;;;;;5017610;28;20236;-52
2023/01/26 06:02:50;;;;;;;16.47;8.57;;;;;;;;;;5019578;28;20237;-54
2023/01/26 06:05:16;;;;;;;12.27;7.80;;;;;;;;;;5023873;28;20262;-51
2023/01/26 06:07:43;;;;;;;13.03;9.27;;;;;;;;;;5021812;28;20257;-53
2023/01/26 06:10:10;;;;;;;12.00;7.60;;;;;;;;;;5025066;28;20240;-52
2023/01/26 06:12:37;;;;;;;13.17;7.23;;;;;;;;;;5023187;28;20229;-52
2023/01/26 06:15:04;;;;;;;16.90;8.37;;;;;;;;;;5018581;28;20241;-53
2023/01/26 06:17:32;;;;;;;15.27;8.57;;;;;;;;;;5023734;28;20728;-53
2023/01/26 06:19:58;;;;;;;15.00;9.93;;;;;;;;;;5020757;28;20683;-52
2023/01/26 06:22:24;;;;;;;14.17;9.27;;;;;;;;;;5031438;28;20242;-53
2023/01/26 06:24:51;;;;;;;13.93;9.03;;;;;;;;;;5021957;28;20228;-52
2023/01/26 06:27:17;;;;;;;15.90;9.53;;;;;;;;;;5024603;28;20264;-52
2023/01/26 06:29:44;;;;;;;14.20;8.63;;;;;;;;;;5026789;28;20589;-52
2023/01/26 06:32:11;;;;;;;11.83;8.17;;;;;;;;;;5024766;28;20240;-52
2023/01/26 06:34:39;;;;;;;15.63;9.63;;;;;;;;;;5020797;28;20229;-52
2023/01/26 06:37:06;;;;;;;19.33;9.30;;;;;;;;;;5021106;28;20240;-53
2023/01/26 06:39:32;;;;;;;16.67;9.50;;;;;;;;;;5023310;28;20255;-52
2023/01/26 06:41:59;;;;;;;14.43;8.70;;;;;;;;;;5023976;28;20854;-52
2023/01/26 06:44:25;;;;;;;15.23;8.70;;;;;;;;;;5023855;28;20335;-53
2023/01/26 06:46:51;;;;;;;11.10;7.37;;;;;;;;;;5023775;28;20753;-52
2023/01/26 06:49:18;;;;;;;16.63;9.43;;;;;;;;;;5019532;28;20760;-52
2023/01/26 06:51:47;;;;;;;18.97;9.70;;;;;;;;;;5020917;28;20236;-52
2023/01/26 06:54:14;;;;;;;12.17;8.60;;;;;;;;;;5028584;28;20321;-54
2023/01/26 06:56:41;;;;;;;15.40;8.57;;;;;;;;;;5023871;28;20234;-53
2023/01/26 06:59:09;;;;;;;13.90;8.60;;;;;;;;;;5024074;28;20278;-54
2023/01/26 07:01:37;;;;;;;16.00;9.50;;;;;;;;;;5016795;28;20236;-53
2023/01/26 07:04:03;;;;;;;13.33;8.43;;;;;;;;;;5022558;28;20231;-53
2023/01/26 07:06:30;;;;;;;18.93;11.43;;;;;;;;;;5023498;28;20238;-52
2023/01/26 07:08:57;;;;;;;16.70;10.13;;;;;;;;;;5026394;28;20326;-53
2023/01/26 07:11:24;;;;;;;16.80;10.00;;;;;;;;;;5018800;28;20245;-53
2023/01/26 07:13:50;;;;;;;12.57;8.37;;;;;;;;;;5025305;28;20233;-52
2023/01/26 07:16:18;;;;;;;15.00;9.77;;;;;;;;;;5023945;28;20258;-53
2023/01/26 07:18:44;;;;;;;13.20;9.20;;;;;;;;;;5024907;28;20235;-53
2023/01/26 07:21:11;;;;;;;41.67;30.83;;;;;;;;;;5025889;28;20239;-53
2023/01/26 07:23:38;;;;;;;30.60;21.60;;;;;;;;;;5032376;28;20661;-52
2023/01/26 07:26:05;;;;;;;24.23;16.80;;;;;;;;;;5034518;28;20231;-52
2023/01/26 07:28:33;;;;;;;15.90;11.67;;;;;;;;;;5033949;28;20735;-57
2023/01/26 07:30:59;;;;;;;19.40;14.33;;;;;;;;;;5037998;28;20245;-56
2023/01/26 07:33:26;;;;;;;53.77;36.23;;;;;;;;;;5032862;28;20220;-52
2023/01/26 07:35:52;;;;;;;586.57;418.10;;;;;;;;;;5043843;22;20243;-57
2023/01/26 07:38:19;;;;;;;695.93;495.23;;;;;;;;;;5038842;28;20249;-57
2023/01/26 07:40:45;;;;;;;384.43;252.13;;;;;;;;;;5039403;28;20314;-57
2023/01/26 07:43:13;;;;;;;530.30;384.57;;;;;;;;;;5039244;28;20289;-58
2023/01/26 07:45:40;;;;;;;180.47;125.23;;;;;;;;;;5040223;28;20609;-57
2023/01/26 07:48:07;;;;;;;145.63;110.47;;;;;;;;;;5040237;28;20745;-57
2023/01/26 07:50:33;;;;;;;340.73;226.47;;;;;;;;;;5040700;28;20289;-58
2023/01/26 07:53:00;;;;;;;420.87;284.70;;;;;;;;;;5040339;28;22232;-58
2023/01/26 07:55:26;;;;;;;519.57;342.60;;;;;;;;;;5039907;28;20258;-56
2023/01/26 07:57:53;;;;;;;421.80;261.43;;;;;;;;;;5034818;28;20760;-56
2023/01/26 08:00:21;;;;;;;292.10;189.60;;;;;;;;;;5040833;28;20266;-57
2023/01/26 08:02:49;;;;;;;161.00;108.77;;;;;;;;;;5040542;28;20311;-57
2023/01/26 08:05:16;;;;;;;354.33;230.67;;;;;;;;;;5039722;28;20235;-57
2023/01/26 08:07:42;;;;;;;437.50;285.20;;;;;;;;;;5031960;28;20238;-57
2023/01/26 08:10:11;;;;;;;599.43;429.87;;;;;;;;;;5042217;28;20300;-56
2023/01/26 08:12:37;;;;;;;407.03;255.57;;;;;;;;;;5039613;28;20231;-56
2023/01/26 08:15:04;;;;;;;523.97;342.63;;;;;;;;;;5035557;28;20253;-57
2023/01/26 08:17:33;;;;;;;273.63;157.20;;;;;;;;;;5040930;28;20235;-57
2023/01/26 08:20:00;;;;;;;212.10;128.40;;;;;;;;;;5035746;28;20739;-56
2023/01/26 08:22:26;;;;;;;167.13;99.20;;;;;;;;;;5035778;28;20592;-56
2023/01/26 08:24:52;;;;;;;68.47;40.97;;;;;;;;;;5037857;28;20318;-56
2023/01/26 08:27:19;;;;;;;40.50;27.77;;;;;;;;;;5038109;28;20321;-56
2023/01/26 08:29:45;;;;;;;26.23;18.67;;;;;;;;;;5038122;28;20251;-56
2023/01/26 08:32:12;;;;;;;19.17;14.07;;;;;;;;;;5036430;28;20803;-60
2023/01/26 08:34:41;;;;;;;20.47;12.50;;;;;;;;;;5037064;28;20270;-57
2023/01/26 08:37:07;;;;;;;10.03;7.80;;;;;;;;;;5039346;28;20329;-57
2023/01/26 08:39:34;;;;;;;10.67;7.90;;;;;;;;;;5038857;28;20234;-56
2023/01/26 08:42:00;;;;;;;13.70;9.40;;;;;;;;;;5038341;28;20268;-58
2023/01/26 08:44:27;;;;;;;12.27;8.47;;;;;;;;;;5039474;28;20234;-57
2023/01/26 08:46:53;;;;;;;9.27;7.23;;;;;;;;;;5036068;28;20266;-58
2023/01/26 08:49:19;;;;;;;9.83;7.20;;;;;;;;;;5040857;28;20234;-58
2023/01/26 08:51:47;;;;;;;10.57;7.53;;;;;;;;;;5038831;28;20720;-58
2023/01/26 08:54:14;;;;;;;7.90;6.13;;;;;;;;;;5038200;28;20246;-58
2023/01/26 08:56:40;;;;;;;9.27;7.27;;;;;;;;;;5037532;28;20832;-58
2023/01/26 08:59:07;;;;;;;9.20;7.03;;;;;;;;;;5037288;28;20329;-58
2023/01/26 09:01:33;;;;;;;9.00;7.30;;;;;;;;;;5035992;28;20314;-58
2023/01/26 09:04:01;;;;;;;9.90;7.00;;;;;;;;;;5034819;28;20230;-58
2023/01/26 09:06:29;;;;;;;11.57;7.03;;;;;;;;;;5037687;28;20236;-58
2023/01/26 09:08:56;;;;;;;12.90;7.50;;;;;;;;;;5038870;28;20223;-57
2023/01/26 09:11:23;;;;;;;10.47;7.63;;;;;;;;;;5039217;28;20325;-58
2023/01/26 09:13:55;;;;;;;9.60;6.60;;;;;;;;;;5039944;28;20227;-58
2023/01/26 09:16:21;;;;;;;10.37;7.23;;;;;;;;;;5033846;28;20239;-58
2023/01/26 09:18:49;;;;;;;10.63;7.17;;;;;;;;;;5028759;28;20241;-57
2023/01/26 09:21:15;;;;;;;7.13;6.33;;;;;;;;;;5037444;28;20235;-58
2023/01/26 09:23:42;;;;;;;8.77;6.33;;;;;;;;;;5036739;28;20310;-57
2023/01/26 09:26:10;;;;;;;9.93;7.20;;;;;;;;;;5039328;28;20243;-57
2023/01/26 09:28:36;;;;;;;8.07;6.10;;;;;;;;;;5035870;28;20652;-57
2023/01/26 09:31:03;;;;;;;9.07;7.10;;;;;;;;;;5038383;28;20318;-58
2023/01/26 09:33:29;;;;;;;13.50;8.30;;;;;;;;;;5038057;28;20243;-57
2023/01/26 09:35:56;;;;;;;10.87;7.63;;;;;;;;;;5037324;28;20246;-58
2023/01/26 09:38:22;;;;;;;12.47;7.23;;;;;;;;;;5034539;28;20243;-57
2023/01/26 09:40:52;;;;;;;12.53;8.50;;;;;;;;;;5038660;28;20252;-58
2023/01/26 09:43:25;;;;;;;13.33;8.90;;;;;;;;;;5041436;28;20565;-57
2023/01/26 09:45:58;;;;;;;14.57;9.30;;;;;;;;;;5041174;28;20235;-58
2023/01/26 09:48:31;;;;;;;12.60;8.37;;;;;;;;;;5034570;28;20314;-57
2023/01/26 09:51:01;;;;;;;11.60;7.63;;;;;;;;;;5035677;28;20239;-57
2023/01/26 09:53:28;;;;;;;12.63;8.00;;;;;;;;;;5034072;28;20237;-58
2023/01/26 09:55:55;;;;;;;14.60;9.03;;;;;;;;;;5035330;28;20238;-58
2023/01/26 09:58:29;;;;;;;11.63;8.53;;;;;;;;;;5030595;28;20240;-57
2023/01/26 10:00:58;;;;;;;13.27;8.37;;;;;;;;;;5025674;28;20231;-58
2023/01/26 10:03:27;;;;;;;14.53;8.50;;;;;;;;;;5035098;28;20233;-58
2023/01/26 10:05:57;;;;;;;10.87;8.03;;;;;;;;;;5029784;28;20256;-57
2023/01/26 10:08:25;;;;;;;9.13;7.57;;;;;;;;;;5032401;28;21072;-57
2023/01/26 10:10:53;;;;;;;12.67;8.00;;;;;;;;;;5035401;28;20236;-57
2023/01/26 10:13:21;;;;;;;11.33;8.80;;;;;;;;;;5032935;28;20227;-57
2023/01/26 10:15:50;;;;;;;12.00;8.63;;;;;;;;;;5031081;28;20247;-58
2023/01/26 10:18:17;;;;;;;11.73;8.13;;;;;;;;;;5035371;28;20252;-58
2023/01/26 10:20:46;;;;;;;13.17;8.70;;;;;;;;;;5035065;28;20248;-57
2023/01/26 10:23:15;;;;;;;11.03;7.73;;;;;;;;;;5036903;28;20235;-57
2023/01/26 10:25:43;;;;;;;11.77;6.87;;;;;;;;;;5036693;28;20234;-57
2023/01/26 10:28:15;;;;;;;11.13;7.87;;;;;;;;;;5036074;28;20718;-57
2023/01/26 10:30:42;;;;;;;12.47;8.97;;;;;;;;;;5037892;28;20235;-57
2023/01/26 10:33:14;;;;;;;12.73;7.93;;;;;;;;;;5036120;28;20245;-57
2023/01/26 10:35:40;;;;;;;15.13;8.57;;;;;;;;;;5033667;28;20238;-57
2023/01/26 10:38:22;;;;;;;36.93;11.97;;;;;;;;;;5032471;28;20687;-57
2023/01/26 10:40:48;;;;;;;21.23;15.17;;;;;;;;;;5034107;28;20236;-57
2023/01/26 10:43:17;;;;;;;14.43;10.50;;;;;;;;;;5039204;28;20236;-55
2023/01/26 10:45:45;;;;;;;17.63;12.63;;;;;;;;;;5034752;28;20243;-57
2023/01/26 10:48:16;;;;;;;18.37;15.03;;;;;;;;;;5035944;28;20260;-56
2023/01/26 10:50:43;;;;;;;48.47;32.57;;;;;;;;;;5042065;28;20238;-56
2023/01/26 10:53:14;;;;;;;108.13;70.00;;;;;;;;;;5038994;28;20288;-56
2023/01/26 10:55:42;;;;;;;26.30;19.40;;;;;;;;;;5032823;28;20224;-56
2023/01/26 10:58:34;;;;;;;18.57;13.73;;;;;;;;;;5043604;28;20669;-55
2023/01/26 11:01:01;;;;;;;20.33;13.53;;;;;;;;;;5028494;28;20271;-56
2023/01/26 11:03:30;;;;;;;35.50;23.80;;;;;;;;;;5034897;28;20239;-56
2023/01/26 11:06:05;;;;;;;48.57;30.87;;;;;;;;;;5041312;28;20241;-55
2023/01/26 11:08:33;;;;;;;127.27;75.00;;;;;;;;;;5045006;28;20238;-56
2023/01/26 11:11:00;;;;;;;430.90;255.70;;;;;;;;;;5042584;28;20297;-55
2023/01/26 11:13:26;;;;;;;199.43;113.87;;;;;;;;;;5033659;28;20226;-56
2023/01/26 11:16:02;;;;;;;233.93;131.53;;;;;;;;;;5032862;28;20891;-55
2023/01/26 11:18:33;;;;;;;257.03;155.43;;;;;;;;;;5037325;28;20771;-55
2023/01/26 11:21:02;;;;;;;241.60;149.23;;;;;;;;;;5042653;28;20240;-56
2023/01/26 11:23:47;;;;;;;205.97;127.20;;;;;;;;;;5024714;28;20247;-55
2023/01/26 11:26:33;;;;;;;188.40;123.20;;;;;;;;;;5035889;28;20321;-55
2023/01/26 11:29:04;;;;;;;327.03;213.03;;;;;;;;;;5033918;28;20243;-55
2023/01/26 11:31:37;;;;;;;267.27;159.17;;;;;;;;;;5033435;28;20331;-55
2023/01/26 11:34:08;;;;;;;144.93;97.67;;;;;;;;;;5038882;28;20325;-54
2023/01/26 11:36:39;;;;;;;168.73;117.80;;;;;;;;;;5034939;28;20231;-56
2023/01/26 11:39:11;;;;;;;111.80;77.10;;;;;;;;;;5042345;28;20244;-55
2023/01/26 11:41:44;;;;;;;65.00;44.43;;;;;;;;;;5040593;28;20326;-55
2023/01/26 11:44:23;;;;;;;33.53;23.30;;;;;;;;;;5032441;28;20252;-55
2023/01/26 11:47:05;;;;;;;39.23;30.43;;;;;;;;;;5039078;28;20263;-55
2023/01/26 11:49:39;;;;;;;28.30;19.17;;;;;;;;;;5038085;28;20247;-55
2023/01/26 11:52:10;;;;;;;29.07;20.93;;;;;;;;;;5034834;28;20259;-55
2023/01/26 11:55:02;;;;;;;26.13;20.20;;;;;;;;;;5029681;28;20285;-55
2023/01/26 11:57:33;;;;;;;27.00;19.00;;;;;;;;;;5034889;28;23362;-55
2023/01/26 12:00:02;;;;;;;15.07;11.33;;;;;;;;;;5040573;28;20321;-55
2023/01/26 12:02:30;;;;;;;12.03;9.30;;;;;;;;;;5036957;28;20253;-55
2023/01/26 12:05:01;;;;;;;12.57;9.03;;;;;;;;;;5039421;28;20784;-56
2023/01/26 12:07:29;;;;;;;11.67;8.50;;;;;;;;;;5034746;28;20240;-56
2023/01/26 12:09:56;;;;;;;8.87;6.93;;;;;;;;;;5036548;28;20742;-55
2023/01/26 12:12:25;;;;;;;10.70;7.73;;;;;;;;;;5039824;28;20232;-55
2023/01/26 12:14:55;;;;;;;14.33;7.63;;;;;;;;;;5042074;28;20314;-56
2023/01/26 12:17:27;;;;;;;9.87;7.40;;;;;;;;;;5038881;28;20330;-55
2023/01/26 12:20:03;;;;;;;10.90;6.77;;;;;;;;;;5034931;28;20607;-55
2023/01/26 12:22:32;;;;;;;6.50;5.17;;;;;;;;;;5034538;28;20259;-56
2023/01/26 12:25:02;;;;;;;7.77;6.03;;;;;;;;;;5039878;28;23646;-56
2023/01/26 12:27:31;;;;;;;6.57;4.43;;;;;;;;;;5032666;28;20240;-54
2023/01/26 12:30:02;;;;;;;7.37;5.87;;;;;;;;;;5039593;28;20629;-57
2023/01/26 12:32:28;;;;;;;7.97;5.60;;;;;;;;;;5039220;28;20238;-54
2023/01/26 12:34:55;;;;;;;6.33;5.73;;;;;;;;;;5039127;28;20722;-57
2023/01/26 12:37:36;;;;;;;7.43;5.90;;;;;;;;;;5033326;28;20245;-55
2023/01/26 12:40:08;;;;;;;6.67;5.47;;;;;;;;;;5033825;28;20239;-55
2023/01/26 12:42:42;;;;;;;10.60;7.40;;;;;;;;;;5040250;28;20224;-55
2023/01/26 12:45:12;;;;;;;9.47;6.60;;;;;;;;;;5034109;28;20297;-54
2023/01/26 12:47:40;;;;;;;9.13;6.47;;;;;;;;;;5038948;28;20685;-57
2023/01/26 12:50:10;;;;;;;10.77;5.63;;;;;;;;;;5039606;28;20236;-55
2023/01/26 12:52:43;;;;;;;7.03;5.43;;;;;;;;;;5034227;28;20253;-55
2023/01/26 12:55:14;;;;;;;8.07;5.70;;;;;;;;;;5037144;28;20250;-55
2023/01/26 12:57:44;;;;;;;6.07;4.67;;;;;;;;;;5031635;28;20662;-54
2023/01/26 13:00:38;;;;;;;9.07;6.47;;;;;;;;;;5038632;28;20242;-55
2023/01/26 13:03:06;;;;;;;8.30;5.97;;;;;;;;;;5035224;28;20763;-54
2023/01/26 13:05:33;;;;;;;8.30;5.63;;;;;;;;;;5039590;28;20241;-55
2023/01/26 13:08:34;;;;;;;8.00;5.90;;;;;;;;;;5036556;28;20234;-55
2023/01/26 13:11:03;;;;;;;6.73;5.43;;;;;;;;;;5034344;28;20245;-57
2023/01/26 13:13:30;;;;;;;7.43;5.90;;;;;;;;;;5029764;28;20237;-54
2023/01/26 13:16:15;;;;;;;7.33;5.73;;;;;;;;;;5040169;28;20310;-57
2023/01/26 13:18:48;;;;;;;7.07;5.47;;;;;;;;;;5036064;28;20598;-56
2023/01/26 13:21:25;;;;;;;7.53;5.33;;;;;;;;;;5036626;28;20327;-55
2023/01/26 13:23:53;;;;;;;9.37;5.80;;;;;;;;;;5034054;28;20254;-56
2023/01/26 13:26:23;;;;;;;8.30;6.80;;;;;;;;;;5038773;28;20236;-55
2023/01/26 13:28:50;;;;;;;6.30;4.90;;;;;;;;;;5033178;28;20230;-56
2023/01/26 13:31:29;;;;;;;8.13;6.03;;;;;;;;;;5028956;28;20234;-55
2023/01/26 13:33:58;;;;;;;7.30;5.33;;;;;;;;;;5030825;28;20582;-56
2023/01/26 13:36:24;;;;;;;10.63;6.77;;;;;;;;;;5036197;28;20242;-55
2023/01/26 13:38:57;;;;;;;11.93;6.57;;;;;;;;;;5037731;28;20310;-56
2023/01/26 13:41:24;;;;;;;12.53;6.77;;;;;;;;;;5035429;28;20230;-55
2023/01/26 13:43:52;;;;;;;7.73;6.07;;;;;;;;;;5039940;28;20238;-54
2023/01/26 13:46:23;;;;;;;9.10;7.13;;;;;;;;;;5036405;28;20235;-55
2023/01/26 13:48:49;;;;;;;10.53;7.27;;;;;;;;;;5038393;28;20241;-55
2023/01/26 13:51:17;;;;;;;9.37;6.77;;;;;;;;;;5034720;28;20735;-55
2023/01/26 13:53:47;;;;;;;10.90;7.43;;;;;;;;;;5034882;28;20226;-56
2023/01/26 13:56:22;;;;;;;9.67;6.47;;;;;;;;;;5042367;28;20534;-55
2023/01/26 13:58:49;;;;;;;9.80;7.10;;;;;;;;;;5036341;28;20247;-56
2023/01/26 14:01:15;;;;;;;10.57;6.73;;;;;;;;;;5041609;28;20239;-55
2023/01/26 14:03:42;;;;;;;10.33;7.07;;;;;;;;;;5042465;28;20224;-54
2023/01/26 14:06:10;;;;;;;11.73;8.23;;;;;;;;;;5040452;28;20308;-59
2023/01/26 14:08:37;;;;;;;10.30;7.93;;;;;;;;;;5043027;28;20242;-55
2023/01/26 14:11:14;;;;;;;10.90;8.13;;;;;;;;;;5039635;28;20232;-55
2023/01/26 14:13:42;;;;;;;10.40;7.27;;;;;;;;;;5039081;28;20225;-57
2023/01/26 14:16:19;;;;;;;10.00;8.00;;;;;;;;;;5040885;28;20271;-55
2023/01/26 14:18:47;;;;;;;10.00;7.33;;;;;;;;;;5029954;28;20236;-56
2023/01/26 14:21:16;;;;;;;9.23;6.97;;;;;;;;;;5038768;28;20253;-56
2023/01/26 14:23:42;;;;;;;7.57;6.63;;;;;;;;;;5041451;28;20226;-55
2023/01/26 14:26:12;;;;;;;10.67;6.83;;;;;;;;;;5044712;28;20247;-56
2023/01/26 14:28:43;;;;;;;9.40;7.10;;;;;;;;;;5035331;28;20230;-55
2023/01/26 14:31:13;;;;;;;9.80;7.07;;;;;;;;;;5035689;28;20259;-57
2023/01/26 14:33:40;;;;;;;11.57;7.90;;;;;;;;;;5038100;28;20278;-55
2023/01/26 14:36:07;;;;;;;10.27;8.43;;;;;;;;;;5037577;28;20318;-55
2023/01/26 14:38:40;;;;;;;10.33;7.57;;;;;;;;;;5043329;28;20245;-54
2023/01/26 14:41:10;;;;;;;12.47;8.80;;;;;;;;;;5034723;28;20231;-56
2023/01/26 14:43:37;;;;;;;9.93;7.03;;;;;;;;;;5034745;28;20226;-55
2023/01/26 14:46:08;;;;;;;13.50;8.33;;;;;;;;;;5040288;28;20246;-56
2023/01/26 14:48:42;;;;;;;11.93;8.93;;;;;;;;;;5039402;28;20954;-57
2023/01/26 14:51:15;;;;;;;10.67;7.60;;;;;;;;;;5042352;28;20319;-56
2023/01/26 14:53:48;;;;;;;13.10;10.07;;;;;;;;;;5032401;28;20237;-57
2023/01/26 14:56:17;;;;;;;12.83;9.10;;;;;;;;;;5043967;28;20243;-57
2023/01/26 14:58:43;;;;;;;10.77;8.40;;;;;;;;;;5036605;28;20603;-56
2023/01/26 15:01:19;;;;;;;12.73;9.97;;;;;;;;;;5033986;28;20322;-57
2023/01/26 15:03:46;;;;;;;12.37;9.43;;;;;;;;;;5034952;28;20236;-57
2023/01/26 15:06:19;;;;;;;14.50;9.30;;;;;;;;;;5037681;28;20335;-58
2023/01/26 15:08:53;;;;;;;16.70;10.23;;;;;;;;;;5033079;28;20318;-57
2023/01/26 15:14:23;;;;;;;17.57;12.60;;;;;;;;;;5040124;28;20239;-57
2023/01/26 15:16:54;;;;;;;18.80;11.50;;;;;;;;;;5037934;28;20735;-57
2023/01/26 15:19:22;;;;;;;19.50;11.47;;;;;;;;;;5035120;28;20249;-56
2023/01/26 15:21:50;;;;;;;16.63;10.93;;;;;;;;;;5040426;28;20245;-59